Time;durP1;ratioP1;P1;durP2;ratioP2;P2;SDS_P1;SDS_P2;PMS_P1;PMS_P2;Temp;Humidity;BMP_temperature;BMP_pressure;BME280_temperature;BME280_humidity;BME280_pressure;Samples;Min_cycle;Max_cycle;Signal;HPM_P1;HPM_P2
2022/05/22 00:00:53;;;;;;;1.8;3.8;;;;;;;-133;69.4;65250;;;;
2022/05/22 00:10:53;;;;;;;1.8;3.8;;;;;;;-133;70.4;65250;;;;
2022/05/22 00:21:53;;;;;;;2.1;4.7;;;;;;;-133;71.4;65250;;;;
2022/05/22 00:31:53;;;;;;;2.1;4.7;;;;;;;-133;72.4;65250;;;;
2022/05/22 00:41:53;;;;;;;2.1;4.7;;;;;;;-133;73.4;65250;;;;
2022/05/22 00:52:53;;;;;;;2.3;7.4;;;;;;;-133;74.5;65250;;;;
2022/05/22 01:03:50;;;;;;;2.3;7.4;;;;;;;-133;75;65250;;;;
2022/05/22 01:12:53;;;;;;;2.3;7.4;;;;;;;-133;74.9;65250;;;;
2022/05/22 01:22:53;;;;;;;2.6;5.3;;;;;;;-133;74.7;65250;;;;
2022/05/22 01:33:53;;;;;;;2.6;5.3;;;;;;;-133;75.5;65250;;;;
2022/05/22 01:43:53;;;;;;;2.6;5.3;;;;;;;-133;75.7;65250;;;;
2022/05/22 01:54:53;;;;;;;3.2;7.1;;;;;;;-133;76.8;65250;;;;
2022/05/22 02:05:53;;;;;;;3.2;7.1;;;;;;;-133;78.9;65250;;;;
2022/05/22 02:15:53;;;;;;;3.2;7.1;;;;;;;-133;80.2;65250;;;;
2022/05/22 02:26:53;;;;;;;3.5;7.6;;;;;;;-133;81;65240;;;;
2022/05/22 02:37:53;;;;;;;3.5;7.6;;;;;;;-133;82.7;65240;;;;
2022/05/22 02:47:53;;;;;;;3.5;7.6;;;;;;;-133;83.9;65250;;;;
2022/05/22 02:57:53;;;;;;;3.6;7.5;;;;;;;-133;84.4;65250;;;;
2022/05/22 03:08:53;;;;;;;3.6;7.5;;;;;;;-133;85.1;65250;;;;
2022/05/22 03:18:53;;;;;;;4.2;8.6;;;;;;;-133;85.4;65250;;;;
2022/05/22 03:28:53;;;;;;;4.2;8.6;;;;;;;-133;86.3;65250;;;;
2022/05/22 03:39:53;;;;;;;4.2;8.6;;;;;;;-133;86.2;65250;;;;
2022/05/22 03:50:53;;;;;;;4.7;8.4;;;;;;;-133;85.8;65250;;;;
2022/05/22 04:00:53;;;;;;;4.7;8.4;;;;;;;-133;86.5;65250;;;;
2022/05/22 04:11:53;;;;;;;4.7;8.4;;;;;;;-133;85.9;65250;;;;
2022/05/22 04:32:53;;;;;;;5.1;7.9;;;;;;;-133;83.7;65240;;;;
2022/05/22 04:42:53;;;;;;;5.1;7.9;;;;;;;-133;82;65240;;;;
2022/05/22 04:53:53;;;;;;;5.4;8.2;;;;;;;-133;80.3;65240;;;;
2022/05/22 05:04:53;;;;;;;5.4;8.2;;;;;;;-133;79.7;65250;;;;
2022/05/22 05:15:53;;;;;;;5.4;8.2;;;;;;;-133;79.2;65240;;;;
2022/05/22 05:26:55;;;;;;;5.6;11.8;;;;;;;-133;78.5;65240;;;;
2022/05/22 05:36:53;;;;;;;5.6;11.8;;;;;;;-133;77.6;65250;;;;
2022/05/22 05:46:53;;;;;;;5.6;11.8;;;;;;;-133;76.7;65240;;;;
2022/05/22 05:56:53;;;;;;;6.2;9.8;;;;;;;-133;75.3;65240;;;;
2022/05/22 06:07:53;;;;;;;6.2;9.8;;;;;;;-133;74.2;65240;;;;
2022/05/22 06:17:56;;;;;;;6.2;9.8;;;;;;;-133;72.5;65240;;;;
2022/05/22 06:28:53;;;;;;;4.7;7;;;;;;;-133;69.3;65240;;;;
2022/05/22 06:39:57;;;;;;;4.7;7;;;;;;;-133;69.7;65250;;;;
2022/05/22 06:49:53;;;;;;;3.2;7.6;;;;;;;-133;65.3;65240;;;;
2022/05/22 07:00:53;;;;;;;3.2;7.6;;;;;;;-133;64;65240;;;;
2022/05/22 07:11:59;;;;;;;3.2;7.6;;;;;;;-133;65.5;65240;;;;
2022/05/22 07:21:53;;;;;;;2.8;6.2;;;;;;;-133;61.8;65240;;;;
2022/05/22 07:31:54;;;;;;;2.8;6.2;;;;;;;-133;59.3;65240;;;;
2022/05/22 07:42:53;;;;;;;2.8;6.2;;;;;;;-133;58.6;65230;;;;
2022/05/22 07:52:53;;;;;;;2.5;5.7;;;;;;;-133;56.7;65230;;;;
2022/05/22 08:03:53;;;;;;;2.5;5.7;;;;;;;-133;58.4;65230;;;;
2022/05/22 08:13:53;;;;;;;2.5;5.7;;;;;;;-133;55.2;65230;;;;
2022/05/22 08:24:53;;;;;;;2.4;5.9;;;;;;;-133;56.5;65230;;;;
2022/05/22 08:34:53;;;;;;;2.4;5.9;;;;;;;-133;54.1;65230;;;;
2022/05/22 08:44:53;;;;;;;2.4;5.9;;;;;;;-133;54.7;65230;;;;
2022/05/22 08:54:53;;;;;;;1.9;4.6;;;;;;;-133;54.1;65230;;;;
2022/05/22 09:05:53;;;;;;;1.9;4.6;;;;;;;-133;51.1;65230;;;;
2022/05/22 09:15:53;;;;;;;1.9;4.6;;;;;;;-133;46.7;65230;;;;
2022/05/22 09:25:53;;;;;;;1.6;4.1;;;;;;;-133;46.2;65240;;;;
2022/05/22 09:36:53;;;;;;;1.6;4.1;;;;;;;-133;45.5;65230;;;;
2022/05/22 09:46:53;;;;;;;1.6;4.1;;;;;;;-133;48;65230;;;;
2022/05/22 09:57:53;;;;;;;1.5;4.6;;;;;;;-133;47.9;65220;;;;
2022/05/22 10:07:53;;;;;;;1.5;4.6;;;;;;;-133;48.4;65230;;;;
2022/05/22 10:17:53;;;;;;;1.5;4.6;;;;;;;-133;47.4;65230;;;;
2022/05/22 10:27:53;;;;;;;1.7;5.1;;;;;;;-133;43.8;65230;;;;
2022/05/22 10:37:53;;;;;;;1.7;5.1;;;;;;;-133;46.8;65230;;;;
2022/05/22 10:47:53;;;;;;;1.7;5.1;;;;;;;-133;48.1;65230;;;;
2022/05/22 10:58:53;;;;;;;1.7;5.6;;;;;;;-133;47.2;65230;;;;
2022/05/22 11:09:53;;;;;;;1.7;5.6;;;;;;;-133;51.4;65220;;;;
2022/05/22 11:20:53;;;;;;;1.5;4.3;;;;;;;-133;49.3;65230;;;;
2022/05/22 11:31:53;;;;;;;1.5;4.3;;;;;;;-133;46.8;65230;;;;
2022/05/22 11:41:53;;;;;;;1.5;4.3;;;;;;;-133;50.7;65230;;;;
2022/05/22 11:52:54;;;;;;;1.6;4.1;;;;;;;-133;48.6;65230;;;;
2022/05/22 12:03:53;;;;;;;1.6;4.1;;;;;;;-133;47.7;65230;;;;
2022/05/22 12:14:53;;;;;;;1.6;4.1;;;;;;;-133;47.1;65230;;;;
2022/05/22 12:24:53;;;;;;;1.5;3.8;;;;;;;-133;46.6;65230;;;;
2022/05/22 12:34:53;;;;;;;1.5;3.8;;;;;;;-133;47.2;65230;;;;
2022/05/22 12:45:53;;;;;;;1.5;3.8;;;;;;;-133;43.4;65230;;;;
2022/05/22 12:55:53;;;;;;;1.7;5.6;;;;;;;-133;44.6;65230;;;;
2022/05/22 13:05:53;;;;;;;1.7;5.6;;;;;;;-133;44;65230;;;;
2022/05/22 13:16:53;;;;;;;1.7;5.6;;;;;;;-133;43.2;65230;;;;
2022/05/22 13:27:53;;;;;;;0.9;2.3;;;;;;;-133;43.5;65230;;;;
2022/05/22 13:37:53;;;;;;;0.9;2.3;;;;;;;-133;43.7;65230;;;;
2022/05/22 13:48:53;;;;;;;1.1;4.1;;;;;;;-133;43.9;65230;;;;
2022/05/22 13:58:53;;;;;;;1.1;4.1;;;;;;;-133;45.1;65230;;;;
2022/05/22 14:09:53;;;;;;;1.1;4.1;;;;;;;-133;44.1;65230;;;;
2022/05/22 14:19:54;;;;;;;0.7;1.9;;;;;;;-133;44.8;65230;;;;
2022/05/22 14:29:53;;;;;;;0.7;1.9;;;;;;;-133;46.9;65230;;;;
2022/05/22 14:40:53;;;;;;;0.7;1.9;;;;;;;-133;48.2;65230;;;;
2022/05/22 14:51:53;;;;;;;0.9;3.1;;;;;;;-133;49.7;65230;;;;
2022/05/22 15:02:53;;;;;;;0.9;3.1;;;;;;;-133;50.6;65240;;;;
2022/05/22 15:12:53;;;;;;;0.9;3.1;;;;;;;-133;51.5;65230;;;;
2022/05/22 15:32:54;;;;;;;1.3;3.6;;;;;;;-133;48.8;65240;;;;
2022/05/22 15:43:53;;;;;;;1.3;3.6;;;;;;;-133;49.2;65230;;;;
2022/05/22 15:54:53;;;;;;;1.4;3.6;;;;;;;-133;51.2;65240;;;;
2022/05/22 16:05:53;;;;;;;1.4;3.6;;;;;;;-133;51.4;65240;;;;
2022/05/22 16:15:53;;;;;;;1.4;3.6;;;;;;;-133;45.2;65230;;;;
2022/05/22 16:25:53;;;;;;;1.2;2.9;;;;;;;-133;44.2;65230;;;;
2022/05/22 16:35:53;;;;;;;1.2;2.9;;;;;;;-133;47.4;65230;;;;
2022/05/22 16:45:54;;;;;;;1.2;2.9;;;;;;;-133;51.5;65230;;;;
2022/05/22 16:56:53;;;;;;;1.2;3.8;;;;;;;-133;52.7;65230;;;;
2022/05/22 17:06:53;;;;;;;1.2;3.8;;;;;;;-133;54.4;65230;;;;
2022/05/22 17:16:53;;;;;;;1.2;3.8;;;;;;;-133;55.7;65240;;;;
2022/05/22 17:26:53;;;;;;;1.7;3.3;;;;;;;-133;56.6;65240;;;;
2022/05/22 17:36:53;;;;;;;1.7;3.3;;;;;;;-133;57.4;65230;;;;
2022/05/22 17:56:15;;;;;;;1.3;4.6;;;;;;;-133;58.4;65240;;;;
2022/05/22 18:06:16;;;;;;;1.3;4.6;;;;;;;-133;59.3;65240;;;;
2022/05/22 18:17:15;;;;;;;1.3;4.6;;;;;;;-133;60.7;65240;;;;
2022/05/22 18:28:16;;;;;;;2.3;4.8;;;;;;;-133;61.6;65240;;;;
2022/05/22 18:39:17;;;;;;;2.3;4.8;;;;;;;-133;63.1;65240;;;;
2022/05/22 18:49:15;;;;;;;2.2;5.3;;;;;;;-133;64.2;65240;;;;
2022/05/22 18:59:16;;;;;;;2.2;5.3;;;;;;;-133;64.6;65240;;;;
2022/05/22 19:10:15;;;;;;;2.2;5.3;;;;;;;-133;66.2;65240;;;;
2022/05/22 19:21:19;;;;;;;2.6;4.9;;;;;;;-133;66.7;65240;;;;
2022/05/22 19:31:16;;;;;;;2.6;4.9;;;;;;;-133;67.1;65240;;;;
2022/05/22 19:53:15;;;;;;;2.9;5.1;;;;;;;-133;69.6;65240;;;;
2022/05/22 20:03:15;;;;;;;2.9;5.1;;;;;;;-133;69.9;65240;;;;
2022/05/22 20:13:15;;;;;;;2.9;5.1;;;;;;;-133;69.8;65240;;;;
2022/05/22 20:24:17;;;;;;;3.8;6.8;;;;;;;-133;69.9;65240;;;;
2022/05/22 20:35:15;;;;;;;3.8;6.8;;;;;;;-133;70;65240;;;;
2022/05/22 20:45:15;;;;;;;3.8;6.8;;;;;;;-133;69.4;65240;;;;
2022/05/22 20:57:13;;;;;;;2.6;5;;;;;;;-133;70.6;65240;;;;
2022/05/22 21:07:15;;;;;;;2.6;5;;;;;;;-133;70.4;65240;;;;
2022/05/22 21:17:15;;;;;;;2.6;5;;;;;;;-133;71.7;65240;;;;
2022/05/22 21:28:31;;;;;;;1.3;3.2;;;;;;;-133;74;65240;;;;
2022/05/22 21:38:16;;;;;;;1.3;3.2;;;;;;;-133;76;65240;;;;
2022/05/22 21:48:15;;;;;;;1.5;2.5;;;;;;;-133;77.5;65240;;;;
2022/05/22 21:58:15;;;;;;;1.5;2.5;;;;;;;-133;77.9;65240;;;;
2022/05/22 22:09:15;;;;;;;1.5;2.5;;;;;;;-133;79.5;65250;;;;
2022/05/22 22:19:15;;;;;;;1.5;2.9;;;;;;;-133;80.7;65240;;;;
2022/05/22 22:29:15;;;;;;;1.5;2.9;;;;;;;-133;82.3;65240;;;;
2022/05/22 22:39:15;;;;;;;1.5;2.9;;;;;;;-133;82.4;65240;;;;
2022/05/22 22:50:15;;;;;;;1.9;4.2;;;;;;;-133;84.8;65240;;;;
2022/05/22 23:00:15;;;;;;;1.9;4.2;;;;;;;-133;82.8;65240;;;;
2022/05/22 23:11:15;;;;;;;1.9;4.2;;;;;;;-133;83.2;65240;;;;
2022/05/22 23:21:15;;;;;;;3.5;5.5;;;;;;;-133;84.2;65240;;;;
2022/05/22 23:31:15;;;;;;;3.5;5.5;;;;;;;-133;84.2;65240;;;;
2022/05/22 23:42:15;;;;;;;3.5;5.5;;;;;;;-133;84.7;65240;;;;
2022/05/22 23:52:15;;;;;;;4;6.9;;;;;;;-133;85;65240;;;;
